Portada
METAR-TAF:

METAR-TAF

Aeropuertos :

Mécheria, Argelia

latitud: 34-56N, longitud: 000-26W, altitud: 1149 m

Observación

El informe se hizo hace 41 minutos, a las 05:00 UTC
Viento 12 kt del oeste-noroeste
Temperatura 6°C
Humedad 70%
Presión 1023 hPa
Visibilidad: 6000 m
Escasas nubes a una altura de 1600 ft
Nubes dispersas a una altura de 2600 ft

METAR: DAAY 040500Z 30012KT 6000 FEW016 SCT026 06/01 Q1023

Hora: 06:41 (05:41 UTC)

Pronóstico

El informe se hizo hace 3 horas y 41 minutos, a las 02:00 UTC
Pronóstico válido del 04 a las 03 UTC al 04 a las 12 UTC
Viento 12 kt del oeste-noroeste
Visibilidad: 6000 m
Escasas nubes a una altura de 1600 ft
Nubes dispersas a una altura de 2600 ft

TAF: DAAY 040200Z 0403/0412 30012KT 6000 FEW016 SCT026

Observaciones y pronósticos meteorológicos de más de 4000 aeropuertos (mensajes METAR y TAF).

Los puntos amarillos y rojos representan las estaciones disponibles.

Ponga el ratón en el punto deseado para ver el nombre de la estación.

Haga clic para ver las observaciones y los pronósticos meteorológicos.

Para cambiar el mapa : haga clic en los botones verdes con una cruz de color negro para hacer un zoom, en el botón verde con un guión para alejar o en las flechas verdes para mapas adyacentes.


METAR-TAF: